Open Full Screen Window  High Contrast Mode
Wind Gusting 00 knots
09
September 16, 2014 11:25 AM EDT
Weather Information
Wind Direction
  030 °
Wind Speed
  09 kt (10 mph)
Wind Gust
  00 kt (0 mph)
Altimeter
30.16 in
Visibility
10 SM
Temperature
16° C
61° F
Dewpoint
12° C
54° F
Humidity
77%
1hr Rain Fall
00.00 in.
24hr Rain Fall
00.09 in.
Sky Condition
Overcast @ 1,800 ft
MVFR

METAR KI69 161525Z AUTO 03009KT 10SM OVC018 16/12 A3016 RMK AO1

*Background is not an actual portrayal of the airport.